createdAt,value
2019-05-06T00:00:21.142Z,98.68
2019-05-06T00:03:21.109Z,99.26
2019-05-06T00:06:21.060Z,98.22
2019-05-06T00:09:21.038Z,98.43
2019-05-06T00:12:21.011Z,97.59
2019-05-06T00:15:20.971Z,97.13
2019-05-06T00:18:20.946Z,96.82
2019-05-06T00:21:20.918Z,97.24
2019-05-06T00:24:20.875Z,96.92
2019-05-06T00:27:20.836Z,92.99
2019-05-06T00:30:20.820Z,90.83
2019-05-06T00:33:20.769Z,88.65
2019-05-06T00:36:20.750Z,87.37
2019-05-06T00:39:20.739Z,86.80
2019-05-06T00:42:20.674Z,86.60
2019-05-06T00:45:20.666Z,89.23
2019-05-06T00:48:20.616Z,89.23
2019-05-06T00:51:20.593Z,88.23
2019-05-06T00:54:20.558Z,89.48
2019-05-06T00:57:20.546Z,87.78
2019-05-06T01:00:20.484Z,87.71
2019-05-06T01:03:20.466Z,88.44
2019-05-06T01:06:20.416Z,89.62
2019-05-06T01:09:20.427Z,90.08
2019-05-06T01:12:20.355Z,91.33
2019-05-06T01:15:20.345Z,92.03
2019-05-06T01:18:20.289Z,92.55
2019-05-06T01:21:20.280Z,94.57
2019-05-06T01:24:20.234Z,95.97
2019-05-06T01:27:20.227Z,94.60
2019-05-06T01:30:20.177Z,96.73
2019-05-06T01:33:20.145Z,97.04
2019-05-06T01:36:20.135Z,98.44
2019-05-06T01:39:20.068Z,98.49
2019-05-06T01:42:20.056Z,99.95
2019-05-06T01:45:20.004Z,99.84
2019-05-06T01:48:19.983Z,99.99
2019-05-06T01:51:19.960Z,99.99
2019-05-06T01:54:19.911Z,99.99
2019-05-06T01:57:19.906Z,99.99
2019-05-06T02:00:19.855Z,99.99
2019-05-06T02:03:19.836Z,99.99
2019-05-06T02:06:19.782Z,99.99
2019-05-06T02:09:19.765Z,99.99
2019-05-06T02:12:19.736Z,99.99
2019-05-06T02:15:19.687Z,99.99
2019-05-06T02:18:19.680Z,99.99
2019-05-06T02:21:19.625Z,99.99
2019-05-06T02:24:19.610Z,99.99
2019-05-06T02:27:19.557Z,99.99
2019-05-06T02:30:19.539Z,99.55
2019-05-06T02:33:19.495Z,99.35
2019-05-06T02:36:19.479Z,99.51
2019-05-06T02:39:19.444Z,98.43
2019-05-06T02:42:19.400Z,97.91
2019-05-06T02:45:19.386Z,98.32
2019-05-06T02:48:19.364Z,98.43
2019-05-06T02:51:19.305Z,99.05
2019-05-06T02:54:19.289Z,99.05
2019-05-06T02:57:19.257Z,98.53
2019-05-06T03:00:19.221Z,99.46
2019-05-06T03:03:19.193Z,99.57
2019-05-06T03:06:19.141Z,99.15
2019-05-06T03:09:19.130Z,99.05
2019-05-06T03:12:19.090Z,98.59
2019-05-06T03:15:19.043Z,98.69
2019-05-06T03:18:19.027Z,97.96
2019-05-06T03:21:19.003Z,97.34
2019-05-06T03:24:18.963Z,97.75
2019-05-06T03:27:18.931Z,97.75
2019-05-06T03:30:18.904Z,98.38
2019-05-06T03:33:44.681Z,98.23
2019-05-06T03:36:31.145Z,97.81
2019-05-06T03:39:19.788Z,97.81
2019-05-06T03:42:18.781Z,97.50
2019-05-06T03:45:18.746Z,96.98
2019-05-06T03:48:18.717Z,96.78
2019-05-06T03:51:18.685Z,96.67
2019-05-06T03:54:18.632Z,96.67
2019-05-06T03:57:18.612Z,96.72
2019-05-06T04:00:18.586Z,97.19
2019-05-06T04:03:18.557Z,97.34
2019-05-06T04:06:18.518Z,97.03
2019-05-06T04:09:18.506Z,97.09
2019-05-06T04:12:18.443Z,95.63
2019-05-06T04:15:18.447Z,95.21
2019-05-06T04:18:18.397Z,95.79
2019-05-06T04:21:18.390Z,95.73
2019-05-06T04:24:18.315Z,95.94
2019-05-06T04:27:18.315Z,95.63
2019-05-06T04:30:18.261Z,95.42
2019-05-06T04:33:18.250Z,94.24
2019-05-06T04:36:18.188Z,93.26
2019-05-06T04:39:18.166Z,92.74
2019-05-06T04:42:18.142Z,93.53
2019-05-06T04:45:18.096Z,92.90
2019-05-06T04:48:18.072Z,92.45
2019-05-06T04:51:18.052Z,91.83
2019-05-06T04:54:18.011Z,90.91
2019-05-06T04:57:17.983Z,90.91
2019-05-06T05:00:17.938Z,90.25
2019-05-06T05:03:17.943Z,88.90
2019-05-06T05:06:17.871Z,88.39
2019-05-06T05:09:17.840Z,88.07
2019-05-06T05:12:17.807Z,87.04
2019-05-06T05:15:17.778Z,87.55
2019-05-06T05:18:17.754Z,87.82
2019-05-06T05:21:17.701Z,86.75
2019-05-06T05:24:17.687Z,87.68
2019-05-06T05:27:17.640Z,86.40
2019-05-06T05:30:17.633Z,86.40
2019-05-06T05:33:17.574Z,85.99
2019-05-06T05:36:17.562Z,86.25
2019-05-06T05:39:17.527Z,85.16
2019-05-06T05:42:17.486Z,85.11
2019-05-06T05:45:17.477Z,83.94
2019-05-06T05:48:17.415Z,84.87
2019-05-06T05:51:17.389Z,85.08
2019-05-06T05:54:17.353Z,83.94
2019-05-06T05:57:17.336Z,82.15
2019-05-06T06:00:17.290Z,82.76
2019-05-06T06:03:17.268Z,82.69
2019-05-06T06:06:17.224Z,80.93
2019-05-06T06:09:17.201Z,82.73
2019-05-06T06:12:17.176Z,82.52
2019-05-06T06:15:17.131Z,81.96
2019-05-06T06:18:17.107Z,81.90
2019-05-06T06:21:23.116Z,81.90
2019-05-06T06:24:18.051Z,78.35
2019-05-06T06:27:17.002Z,79.52
2019-05-06T06:30:16.987Z,77.80
2019-05-06T06:33:16.957Z,78.56
2019-05-06T06:36:16.965Z,77.22
2019-05-06T06:39:16.875Z,77.73
2019-05-06T06:42:16.857Z,76.70
2019-05-06T06:45:16.830Z,76.63
2019-05-06T06:48:16.784Z,75.98
2019-05-06T06:51:16.769Z,73.98
2019-05-06T06:54:16.730Z,73.68
2019-05-06T06:57:16.698Z,71.83
2019-05-06T07:00:16.668Z,71.58
2019-05-06T07:03:16.639Z,72.06
2019-05-06T07:06:17.359Z,68.88
2019-05-06T07:09:16.576Z,70.97
2019-05-06T07:12:16.569Z,66.09
2019-05-06T07:15:16.503Z,64.38
2019-05-06T07:18:16.486Z,65.99
2019-05-06T07:21:16.433Z,64.85
2019-05-06T07:24:16.423Z,64.38
2019-05-06T07:27:16.366Z,64.17
2019-05-06T07:30:16.345Z,66.49
2019-05-06T07:33:16.317Z,69.47
2019-05-06T07:36:16.265Z,64.62
2019-05-06T07:39:16.254Z,65.64
2019-05-06T07:42:16.210Z,64.23
2019-05-06T07:45:16.230Z,65.68
2019-05-06T07:48:16.147Z,60.37
2019-05-06T07:51:16.109Z,56.58
2019-05-06T07:54:16.080Z,55.13
2019-05-06T07:57:16.051Z,58.28
2019-05-06T08:00:16.002Z,59.83
2019-05-06T08:03:15.985Z,57.98
2019-05-06T08:06:15.946Z,54.79
2019-05-06T08:09:15.914Z,58.42
2019-05-06T08:12:15.892Z,57.09
2019-05-06T08:15:15.857Z,56.76
2019-05-06T08:18:15.817Z,58.14
2019-05-06T08:21:15.780Z,57.53
2019-05-06T08:24:15.762Z,59.14
2019-05-06T08:27:15.758Z,62.04
2019-05-06T08:30:15.726Z,57.25
2019-05-06T08:33:15.684Z,56.15
2019-05-06T08:36:15.639Z,58.16
2019-05-06T08:39:15.601Z,58.61
2019-05-06T08:42:15.551Z,59.83
2019-05-06T08:45:15.533Z,58.21
2019-05-06T08:48:15.482Z,54.31
2019-05-06T08:51:15.466Z,57.17
2019-05-06T08:54:15.437Z,56.48
2019-05-06T08:57:15.390Z,57.50
2019-05-06T09:00:15.371Z,57.63
2019-05-06T09:03:15.340Z,54.08
2019-05-06T09:06:26.990Z,57.09
2019-05-06T09:09:16.255Z,52.66
2019-05-06T09:12:15.243Z,53.50
2019-05-06T09:15:15.213Z,50.19
2019-05-06T09:18:15.167Z,51.61
2019-05-06T09:21:15.143Z,56.20
2019-05-06T09:24:15.117Z,46.41
2019-05-06T09:27:15.073Z,44.30
2019-05-06T09:30:15.036Z,43.67
2019-05-06T09:33:15.026Z,40.86
2019-05-06T09:36:14.993Z,41.24
2019-05-06T09:39:14.944Z,46.20
2019-05-06T09:42:14.917Z,37.23
2019-05-06T09:45:14.912Z,38.28
2019-05-06T09:48:14.889Z,38.23
2019-05-06T09:51:14.828Z,38.60
2019-05-06T09:54:14.806Z,39.01
2019-05-06T09:57:14.754Z,38.13
2019-05-06T10:00:14.740Z,32.11
2019-05-06T10:03:14.689Z,31.40
2019-05-06T10:06:14.669Z,43.90
2019-05-06T10:09:16.168Z,36.98
2019-05-06T10:12:14.592Z,31.36
2019-05-06T10:15:14.575Z,31.55
2019-05-06T10:18:14.548Z,34.69
2019-05-06T10:21:14.499Z,34.70
2019-05-06T10:24:14.477Z,37.13
2019-05-06T10:27:14.437Z,39.03
2019-05-06T10:30:14.419Z,38.96
2019-05-06T10:33:14.397Z,41.05
2019-05-06T10:36:14.354Z,41.62
2019-05-06T10:39:14.326Z,40.88
2019-05-06T10:42:14.278Z,45.17
2019-05-06T10:45:14.259Z,44.63
2019-05-06T10:48:14.211Z,45.16
2019-05-06T10:51:16.859Z,40.36
2019-05-06T10:54:14.179Z,39.71
2019-05-06T10:57:14.123Z,36.27
2019-05-06T11:00:14.100Z,37.10
2019-05-06T11:03:14.839Z,44.28
2019-05-06T11:06:14.031Z,46.14
2019-05-06T11:09:14.005Z,40.75
2019-05-06T11:12:13.980Z,37.98
2019-05-06T11:15:13.934Z,38.29
2019-05-06T11:18:13.940Z,37.45
2019-05-06T11:21:13.862Z,39.39
2019-05-06T11:24:13.845Z,36.19
2019-05-06T11:27:28.095Z,36.47
2019-05-06T11:30:14.766Z,35.85
2019-05-06T11:33:13.748Z,32.14
2019-05-06T11:36:15.156Z,30.70
2019-05-06T11:39:14.245Z,31.98
2019-05-06T11:42:28.025Z,34.45
2019-05-06T11:45:14.626Z,36.90
2019-05-06T11:48:14.699Z,34.55
2019-05-06T11:51:13.559Z,39.71
2019-05-06T11:54:19.362Z,42.37
2019-05-06T11:57:14.508Z,44.24
2019-05-06T12:00:13.462Z,46.04
2019-05-06T12:03:13.436Z,45.10
2019-05-06T12:06:13.420Z,44.75
2019-05-06T12:09:16.754Z,43.81
2019-05-06T12:12:13.351Z,41.21
2019-05-06T12:15:13.323Z,36.10
2019-05-06T12:18:13.283Z,32.23
2019-05-06T12:21:18.883Z,33.46
2019-05-06T12:24:14.224Z,38.10
2019-05-06T12:27:13.179Z,37.73
2019-05-06T12:30:13.129Z,37.39
2019-05-06T12:33:13.246Z,38.39
2019-05-06T12:36:13.082Z,35.16
2019-05-06T12:39:15.739Z,37.07
2019-05-06T12:42:13.007Z,40.41
2019-05-06T12:45:13.183Z,42.69
2019-05-06T12:48:13.196Z,42.90
2019-05-06T12:51:12.926Z,40.77
2019-05-06T12:54:13.021Z,38.03
2019-05-06T12:57:12.859Z,38.03
2019-05-06T13:00:13.193Z,36.85
2019-05-06T13:03:12.819Z,37.89
2019-05-06T13:06:13.115Z,37.05
2019-05-06T13:09:13.041Z,39.53
2019-05-06T13:12:12.704Z,38.20
2019-05-06T13:15:13.425Z,39.04
2019-05-06T13:18:12.638Z,40.48
2019-05-06T13:21:12.841Z,38.98
2019-05-06T13:24:12.572Z,38.35
2019-05-06T13:27:12.725Z,29.97
2019-05-06T13:30:13.003Z,31.95
2019-05-06T13:33:13.495Z,35.88
2019-05-06T13:36:13.227Z,40.19
2019-05-06T13:39:14.984Z,41.80
2019-05-06T13:42:13.281Z,40.66
2019-05-06T13:45:12.328Z,41.15
2019-05-06T13:48:13.249Z,40.67
2019-05-06T13:51:12.501Z,39.55
2019-05-06T13:54:15.731Z,43.10
2019-05-06T13:57:12.591Z,44.16
2019-05-06T14:00:13.599Z,44.45
2019-05-06T14:03:12.144Z,47.36
2019-05-06T14:06:12.377Z,47.02
2019-05-06T14:09:27.960Z,47.45
2019-05-06T14:12:13.052Z,49.46
2019-05-06T14:15:12.557Z,46.25
2019-05-06T14:18:13.467Z,46.92
2019-05-06T14:21:12.491Z,41.97
2019-05-06T14:24:13.252Z,35.66
2019-05-06T14:27:11.877Z,33.07
2019-05-06T14:30:11.909Z,38.79
2019-05-06T14:33:15.148Z,40.97
2019-05-06T14:36:12.767Z,48.23
2019-05-06T14:39:12.762Z,46.07
2019-05-06T14:42:12.793Z,48.14
2019-05-06T14:45:14.486Z,48.55
2019-05-06T14:48:11.658Z,50.20
2019-05-06T14:51:13.006Z,50.41
2019-05-06T14:54:14.547Z,52.72
2019-05-06T14:57:12.236Z,54.59
2019-05-06T15:00:12.194Z,55.99
2019-05-06T15:03:12.997Z,55.76
2019-05-06T15:06:12.891Z,56.48
2019-05-06T15:09:13.417Z,55.15
2019-05-06T15:12:12.967Z,49.64
2019-05-06T15:15:12.182Z,46.70
2019-05-06T15:18:12.758Z,45.17
2019-05-06T15:21:32.338Z,48.76
2019-05-06T15:24:13.836Z,54.33
2019-05-06T15:27:12.006Z,56.15
2019-05-06T15:30:12.389Z,56.04
2019-05-06T15:33:13.215Z,56.84
2019-05-06T15:36:12.822Z,57.32
2019-05-06T15:39:13.187Z,57.40
2019-05-06T15:42:12.820Z,56.20
2019-05-06T15:45:12.639Z,56.10
2019-05-06T15:48:12.881Z,56.40
2019-05-06T15:51:12.263Z,56.61
2019-05-06T15:54:10.954Z,58.70
2019-05-06T15:57:10.908Z,56.45
2019-05-06T16:00:12.909Z,56.02
2019-05-06T16:03:13.002Z,55.76
2019-05-06T16:06:12.434Z,55.87
2019-05-06T16:09:14.152Z,55.71
2019-05-06T16:12:12.723Z,57.68
2019-05-06T16:15:12.844Z,60.74
2019-05-06T16:18:12.815Z,67.18
2019-05-06T16:21:10.744Z,71.83
2019-05-06T16:24:12.551Z,75.42
2019-05-06T16:27:12.439Z,77.47
2019-05-06T16:30:12.959Z,77.51
2019-05-06T16:33:12.173Z,79.60
2019-05-06T16:36:12.687Z,84.32
2019-05-06T16:39:12.102Z,85.90
2019-05-06T16:42:12.806Z,89.50
2019-05-06T16:45:12.502Z,81.11
2019-05-06T16:48:10.348Z,87.79
2019-05-06T16:51:12.463Z,88.62
2019-05-06T16:54:11.874Z,88.62
2019-05-06T16:57:10.264Z,89.03
2019-05-06T17:00:10.221Z,89.19
2019-05-06T17:03:11.698Z,87.38
2019-05-06T17:06:13.763Z,81.52
2019-05-06T17:09:19.958Z,85.74
2019-05-06T17:12:12.814Z,79.74
2019-05-06T17:15:10.059Z,83.89
2019-05-06T17:18:12.139Z,87.04
2019-05-06T17:21:10.003Z,85.08
2019-05-06T17:24:09.978Z,86.99
2019-05-06T17:27:11.988Z,87.61
2019-05-06T17:30:09.901Z,84.74
2019-05-06T17:33:09.877Z,82.31
2019-05-06T17:36:09.848Z,86.27
2019-05-06T17:39:09.820Z,84.53
2019-05-06T17:42:09.769Z,82.23
2019-05-06T17:45:09.759Z,83.29
2019-05-06T17:48:09.715Z,84.36
2019-05-06T17:51:09.687Z,84.22
2019-05-06T17:54:09.667Z,82.71
2019-05-06T17:57:09.611Z,83.23
2019-05-06T18:00:09.592Z,84.09
2019-05-06T18:03:09.555Z,84.50
2019-05-06T18:06:14.025Z,85.84
2019-05-06T18:09:09.484Z,84.44
2019-05-06T18:12:09.465Z,88.45
2019-05-06T18:15:09.422Z,86.08
2019-05-06T18:18:09.401Z,85.82
2019-05-06T18:21:09.390Z,87.26
2019-05-06T18:24:09.855Z,89.01
2019-05-06T18:27:09.311Z,87.87
2019-05-06T18:30:15.923Z,88.64
2019-05-06T18:33:10.241Z,89.97
2019-05-06T18:36:09.211Z,91.17
2019-05-06T18:39:09.178Z,91.11
2019-05-06T18:42:17.078Z,93.58
2019-05-06T18:45:12.223Z,91.72
2019-05-06T18:48:09.082Z,91.00
2019-05-06T18:51:09.042Z,91.52
2019-05-06T18:54:09.022Z,90.28
2019-05-06T18:57:08.998Z,92.24
2019-05-06T19:00:08.953Z,90.84
2019-05-06T19:03:08.945Z,89.91
2019-05-06T19:06:08.882Z,89.50
2019-05-06T19:09:08.861Z,90.01
2019-05-06T19:12:08.818Z,90.33
2019-05-06T19:15:08.817Z,89.13
2019-05-06T19:18:08.767Z,92.22
2019-05-06T19:21:08.747Z,92.02
2019-05-06T19:24:08.695Z,92.63
2019-05-06T19:27:08.670Z,92.16
2019-05-06T19:30:08.643Z,91.19
2019-05-06T19:33:08.610Z,91.30
2019-05-06T19:36:08.590Z,92.84
2019-05-06T19:39:08.540Z,93.66
2019-05-06T19:42:08.518Z,91.81
2019-05-06T19:45:08.485Z,93.56
2019-05-06T19:48:08.454Z,93.35
2019-05-06T19:51:08.422Z,93.25
2019-05-06T19:54:08.393Z,93.46
2019-05-06T19:57:08.360Z,93.31
2019-05-06T20:00:08.322Z,94.80
2019-05-06T20:03:08.295Z,92.74
2019-05-06T20:06:08.267Z,93.73
2019-05-06T20:09:08.232Z,94.65
2019-05-06T20:12:08.209Z,94.85
2019-05-06T20:15:08.160Z,94.60
2019-05-06T20:18:08.145Z,95.17
2019-05-06T20:21:09.394Z,93.83
2019-05-06T20:24:15.599Z,88.33
2019-05-06T20:27:08.040Z,86.47
2019-05-06T20:30:08.009Z,88.64
2019-05-06T20:33:07.996Z,86.41
2019-05-06T20:36:07.940Z,84.62
2019-05-06T20:39:07.922Z,86.93
2019-05-06T20:42:07.900Z,91.30
2019-05-06T20:45:07.848Z,92.88
2019-05-06T20:48:07.823Z,92.27
2019-05-06T20:51:07.783Z,90.25
2019-05-06T20:54:07.764Z,93.18
2019-05-06T20:57:07.731Z,92.66
2019-05-06T21:00:07.712Z,93.84
2019-05-06T21:03:07.669Z,93.94
2019-05-06T21:06:07.627Z,94.29
2019-05-06T21:09:07.608Z,95.02
2019-05-06T21:12:07.561Z,94.92
2019-05-06T21:15:07.554Z,95.64
2019-05-06T21:18:07.499Z,96.26
2019-05-06T21:21:07.538Z,97.29
2019-05-06T21:24:07.447Z,97.75
2019-05-06T21:27:07.406Z,97.50
2019-05-06T21:30:07.383Z,97.39
2019-05-06T21:33:07.337Z,97.13
2019-05-06T21:36:07.318Z,97.64
2019-05-06T21:39:07.277Z,96.72
2019-05-06T21:42:07.261Z,97.44
2019-05-06T21:45:07.212Z,97.44
2019-05-06T21:48:07.194Z,95.17
2019-05-06T21:51:07.172Z,95.78
2019-05-06T21:54:07.134Z,97.02
2019-05-06T21:57:07.094Z,95.48
2019-05-06T22:00:07.066Z,95.48
2019-05-06T22:03:07.047Z,96.72
2019-05-06T22:06:06.991Z,96.92
2019-05-06T22:09:07.047Z,96.51
2019-05-06T22:12:06.938Z,95.27
2019-05-06T22:15:06.897Z,95.37
2019-05-06T22:18:06.874Z,95.37
2019-05-06T22:21:06.828Z,95.89
2019-05-06T22:24:06.810Z,95.48
2019-05-06T22:27:06.766Z,94.75
2019-05-06T22:30:06.755Z,95.78
2019-05-06T22:33:06.715Z,94.85
2019-05-06T22:36:06.668Z,94.54
2019-05-06T22:39:06.652Z,95.68
2019-05-06T22:42:06.603Z,95.27
2019-05-06T22:45:06.583Z,96.09
2019-05-06T22:48:06.541Z,95.89
2019-05-06T22:51:06.609Z,96.41
2019-05-06T22:54:06.475Z,98.06
2019-05-06T22:57:06.457Z,97.75
2019-05-06T23:00:06.428Z,96.82
2019-05-06T23:03:06.378Z,96.61
2019-05-06T23:06:06.363Z,97.71
2019-05-06T23:09:06.328Z,97.50
2019-05-06T23:12:06.292Z,98.22
2019-05-06T23:15:06.267Z,97.23
2019-05-06T23:18:06.220Z,96.82
2019-05-06T23:21:06.201Z,97.13
2019-05-06T23:24:06.158Z,97.96
2019-05-06T23:27:06.134Z,98.37
2019-05-06T23:30:06.094Z,98.16
2019-05-06T23:33:06.076Z,98.52
2019-05-06T23:36:06.031Z,99.04
2019-05-06T23:39:06.007Z,98.52
2019-05-06T23:42:05.972Z,98.83
2019-05-06T23:45:05.944Z,99.60
2019-05-06T23:48:05.919Z,99.60
2019-05-06T23:51:05.890Z,99.99
2019-05-06T23:54:05.846Z,99.99
2019-05-06T23:57:05.803Z,99.44
